Aviation Digital Data Service (ADDS)

Output produced by METARs form (2230 UTC 24 September 2016)
found at http://aviationweather.gov/adds/metars/
 
KMGW 241759Z 2418/2518 35005KT P6SM BKN020 
     FM242000 36006KT P6SM BKN035 
     FM242300 VRB03KT P6SM SKC 
     FM250600 02002KT 2SM BR SKC 
     FM251200 02002KT P6SM SKC